Time;durP1;ratioP1;P1;durP2;ratioP2;P2;SDS_P1;SDS_P2;PMS_P1;PMS_P2;Temp;Humidity;BMP_temperature;BMP_pressure;BME280_temperature;BME280_humidity;BME280_pressure;Samples;Min_cycle;Max_cycle;Signal;HPM_P1;HPM_P2
2022/09/18 00:02:06;;;;;;;9.67;2.33;;;11.30;99.90;;;;;;5045789;28;20451;-88
2022/09/18 00:04:53;;;;;;;5.73;2.40;;;11.10;99.90;;;;;;5040826;28;20831;-88
2022/09/18 00:07:39;;;;;;;5.70;2.07;;;11.20;99.90;;;;;;5045737;28;20479;-87
2022/09/18 00:10:25;;;;;;;6.30;2.20;;;11.20;99.90;;;;;;5060176;28;20573;-88
2022/09/18 00:13:11;;;;;;;5.23;1.93;;;11.30;99.90;;;;;;5048565;28;20573;-88
2022/09/18 00:15:57;;;;;;;7.40;1.93;;;11.30;99.90;;;;;;5045798;28;20482;-88
2022/09/18 00:18:43;;;;;;;5.83;2.10;;;11.30;99.90;;;;;;5037681;28;20590;-88
2022/09/18 00:21:30;;;;;;;5.43;2.03;;;11.20;99.90;;;;;;5044669;28;20467;-87
2022/09/18 00:24:17;;;;;;;6.30;1.93;;;11.30;99.90;;;;;;5049378;28;20530;-88
2022/09/18 00:27:02;;;;;;;4.07;1.50;;;11.20;99.90;;;;;;5049232;28;20475;-88
2022/09/18 00:29:48;;;;;;;11.23;1.97;;;11.20;99.90;;;;;;5052843;28;20571;-89
2022/09/18 00:32:34;;;;;;;8.93;2.80;;;11.10;99.90;;;;;;5057206;28;20463;-88
2022/09/18 00:35:20;;;;;;;6.83;2.03;;;11.10;99.90;;;;;;5045658;28;20448;-87
2022/09/18 00:38:07;;;;;;;7.40;1.93;;;11.20;99.90;;;;;;5051465;28;20823;-88
2022/09/18 00:40:52;;;;;;;5.80;1.90;;;11.10;99.90;;;;;;5047767;28;20451;-88
2022/09/18 00:43:39;;;;;;;3.50;1.70;;;11.00;99.90;;;;;;5050625;28;20906;-88
2022/09/18 00:46:28;;;;;;;7.00;2.00;;;11.00;99.90;;;;;;5047823;28;20445;-88
2022/09/18 00:49:18;;;;;;;4.80;1.63;;;10.90;99.90;;;;;;5048762;28;21009;-88
2022/09/18 00:52:04;;;;;;;4.30;2.00;;;10.90;99.90;;;;;;5047598;28;20451;-88
2022/09/18 00:54:55;;;;;;;5.57;1.67;;;11.00;99.90;;;;;;5046856;28;20444;-89
2022/09/18 00:57:46;;;;;;;5.43;2.17;;;11.00;99.90;;;;;;5040156;28;20509;-88
2022/09/18 01:00:32;;;;;;;10.47;1.87;;;11.10;99.90;;;;;;5048008;28;20447;-89
2022/09/18 01:03:18;;;;;;;14.10;2.37;;;11.20;99.90;;;;;;5047578;28;20413;-89
2022/09/18 01:06:11;;;;;;;6.00;1.93;;;11.20;99.90;;;;;;5043047;28;20462;-88
2022/09/18 01:09:08;;;;;;;4.20;1.97;;;11.20;99.90;;;;;;5049494;28;20951;-89
2022/09/18 01:12:00;;;;;;;7.90;1.97;;;11.20;99.90;;;;;;5052194;28;20946;-90
2022/09/18 01:14:54;;;;;;;5.27;1.73;;;11.20;99.90;;;;;;5042981;28;20456;-88
2022/09/18 01:17:45;;;;;;;6.97;2.10;;;11.30;99.90;;;;;;5048613;28;20943;-89
2022/09/18 01:20:49;;;;;;;4.33;2.00;;;11.30;99.90;;;;;;5050448;28;20548;-89
2022/09/18 01:23:59;;;;;;;5.07;1.70;;;11.40;99.90;;;;;;5046201;28;21005;-88
2022/09/18 01:26:54;;;;;;;4.93;1.73;;;11.30;99.90;;;;;;5048741;28;20459;-89
2022/09/18 01:29:51;;;;;;;4.90;1.63;;;11.00;99.90;;;;;;5050107;28;20955;-88
2022/09/18 01:32:43;;;;;;;9.20;2.70;;;11.10;99.90;;;;;;5052697;28;20455;-88
2022/09/18 01:35:35;;;;;;;3.60;1.47;;;11.10;99.90;;;;;;5036200;28;20434;-88
2022/09/18 01:38:26;;;;;;;8.40;2.17;;;11.10;99.90;;;;;;5042828;28;20460;-88
2022/09/18 01:41:16;;;;;;;20.73;2.53;;;11.20;99.90;;;;;;5045434;28;20485;-88
2022/09/18 01:44:05;;;;;;;10.03;2.50;;;11.30;99.90;;;;;;5042960;28;20490;-88
2022/09/18 01:46:56;;;;;;;9.10;1.67;;;11.40;99.90;;;;;;5048350;28;21015;-88
2022/09/18 01:49:45;;;;;;;5.30;2.00;;;11.40;99.90;;;;;;5046591;28;20447;-87
2022/09/18 01:52:36;;;;;;;9.20;2.50;;;11.50;99.90;;;;;;5048011;28;20405;-88
2022/09/18 01:55:26;;;;;;;6.83;2.40;;;11.50;99.90;;;;;;5042521;28;20417;-88
2022/09/18 01:58:16;;;;;;;4.87;2.03;;;11.40;99.90;;;;;;5047103;28;20409;-88
2022/09/18 02:01:08;;;;;;;6.23;1.73;;;11.40;99.90;;;;;;5047186;28;20444;-88
2022/09/18 02:04:00;;;;;;;4.93;1.63;;;11.50;99.90;;;;;;5044575;28;20494;-88
2022/09/18 02:06:53;;;;;;;4.20;1.40;;;11.50;99.90;;;;;;5048875;28;20538;-87
2022/09/18 02:09:39;;;;;;;8.10;1.90;;;11.60;99.90;;;;;;5052852;28;20971;-87
2022/09/18 02:12:26;;;;;;;5.20;1.60;;;11.50;99.90;;;;;;5059174;28;20408;-88
2022/09/18 02:15:14;;;;;;;6.70;1.73;;;11.50;99.90;;;;;;5037705;28;20456;-88
2022/09/18 02:18:02;;;;;;;10.40;1.50;;;11.50;99.90;;;;;;5039839;28;20445;-88
2022/09/18 02:20:50;;;;;;;2.60;1.43;;;11.50;99.90;;;;;;5036570;28;20467;-88
2022/09/18 02:23:37;;;;;;;6.80;1.40;;;11.30;99.90;;;;;;5047238;28;20451;-87
2022/09/18 02:26:23;;;;;;;4.53;1.70;;;11.30;99.90;;;;;;5048678;28;20529;-88
2022/09/18 02:29:12;;;;;;;9.73;1.80;;;11.20;99.90;;;;;;5045679;28;20442;-88
2022/09/18 02:31:59;;;;;;;6.43;1.70;;;11.20;99.90;;;;;;5048568;28;20967;-88
2022/09/18 02:34:45;;;;;;;5.50;1.70;;;11.10;99.90;;;;;;5048138;28;20447;-88
2022/09/18 02:37:39;;;;;;;4.00;1.53;;;11.20;99.90;;;;;;5050882;28;20946;-88
2022/09/18 02:40:33;;;;;;;4.90;1.73;;;11.20;99.90;;;;;;5047725;28;20626;-87
2022/09/18 02:43:38;;;;;;;3.23;1.77;;;11.20;99.90;;;;;;5046925;28;20711;-88
2022/09/18 02:46:32;;;;;;;4.30;1.40;;;11.10;99.90;;;;;;5050383;28;20487;-87
2022/09/18 02:49:28;;;;;;;5.50;1.90;;;11.20;99.90;;;;;;5048742;28;20473;-87
2022/09/18 02:52:19;;;;;;;9.20;2.80;;;11.20;99.90;;;;;;5053410;28;20550;-88
2022/09/18 02:55:12;;;;;;;3.80;1.50;;;11.20;99.90;;;;;;5044870;28;20448;-87
2022/09/18 02:58:04;;;;;;;3.40;1.57;;;11.20;99.90;;;;;;5050614;28;20524;-88
2022/09/18 03:00:51;;;;;;;4.90;1.73;;;11.20;99.90;;;;;;5048456;28;20486;-88
2022/09/18 03:03:39;;;;;;;7.17;1.80;;;11.10;99.90;;;;;;5040635;28;20439;-88
2022/09/18 03:06:24;;;;;;;6.63;1.70;;;11.20;99.90;;;;;;5048102;28;20438;-88
2022/09/18 03:09:10;;;;;;;5.13;1.60;;;11.20;99.90;;;;;;5057600;28;20494;-88
2022/09/18 03:11:57;;;;;;;5.30;1.80;;;11.20;99.90;;;;;;5067132;28;20513;-88
2022/09/18 03:14:43;;;;;;;4.00;1.83;;;11.10;99.90;;;;;;5042958;28;20542;-89
2022/09/18 03:17:29;;;;;;;5.90;1.50;;;11.10;99.90;;;;;;5054598;28;20844;-88
2022/09/18 03:20:15;;;;;;;3.37;1.13;;;11.10;99.90;;;;;;5054224;28;20448;-87
2022/09/18 03:23:00;;;;;;;7.90;1.97;;;11.20;99.90;;;;;;5055166;28;20482;-88
2022/09/18 03:25:49;;;;;;;3.33;2.00;;;11.20;99.90;;;;;;5050838;28;20471;-88
2022/09/18 03:28:36;;;;;;;7.50;1.73;;;11.20;99.90;;;;;;5053307;28;20464;-88
2022/09/18 03:31:22;;;;;;;2.97;1.30;;;11.20;99.90;;;;;;5052519;28;20495;-88
2022/09/18 03:34:08;;;;;;;3.00;1.23;;;11.20;99.90;;;;;;5054360;28;20952;-88
2022/09/18 03:36:53;;;;;;;6.20;1.57;;;11.20;99.90;;;;;;5051738;28;20471;-88
2022/09/18 03:39:39;;;;;;;8.33;1.70;;;11.20;99.90;;;;;;5046000;28;20581;-88
2022/09/18 03:42:25;;;;;;;4.00;1.60;;;11.20;99.90;;;;;;5053052;28;20419;-88
2022/09/18 03:45:12;;;;;;;2.60;1.83;;;11.30;99.90;;;;;;5043812;28;20495;-88
2022/09/18 03:47:58;;;;;;;4.80;1.87;;;11.20;99.90;;;;;;5060521;28;21015;-88
2022/09/18 03:50:44;;;;;;;3.60;1.70;;;11.30;99.90;;;;;;5052401;28;20451;-88
2022/09/18 03:53:29;;;;;;;3.67;1.63;;;11.20;99.90;;;;;;5042740;28;21093;-89
2022/09/18 03:56:15;;;;;;;4.33;1.40;;;11.20;99.90;;;;;;5046315;28;20472;-89
2022/09/18 03:59:01;;;;;;;3.90;1.63;;;11.20;99.90;;;;;;5057920;28;20482;-89
2022/09/18 04:01:48;;;;;;;5.27;1.60;;;11.30;99.90;;;;;;5053468;28;20510;-89
2022/09/18 04:04:34;;;;;;;3.83;1.40;;;11.30;99.90;;;;;;5045429;28;20439;-89
2022/09/18 04:07:20;;;;;;;8.60;3.30;;;11.30;99.90;;;;;;5051251;28;20970;-89
2022/09/18 04:10:07;;;;;;;2.77;1.77;;;11.20;99.90;;;;;;5047345;28;20511;-88
2022/09/18 04:12:53;;;;;;;3.93;1.50;;;11.20;99.90;;;;;;5045798;28;20456;-88
2022/09/18 04:15:39;;;;;;;7.07;1.90;;;11.20;99.90;;;;;;5054596;28;20443;-88
2022/09/18 04:18:26;;;;;;;3.13;2.00;;;11.20;99.90;;;;;;5044756;28;20420;-89
2022/09/18 04:21:11;;;;;;;3.50;1.40;;;11.10;99.90;;;;;;5051250;28;20423;-89
2022/09/18 04:23:58;;;;;;;6.43;2.10;;;11.10;99.90;;;;;;5048091;28;20808;-89
2022/09/18 04:26:44;;;;;;;6.47;1.90;;;11.10;99.90;;;;;;5048174;28;20514;-88
2022/09/18 04:29:30;;;;;;;3.07;1.70;;;11.10;99.90;;;;;;5047248;28;20425;-89
2022/09/18 04:32:15;;;;;;;3.93;1.60;;;11.20;99.90;;;;;;5048669;28;20536;-88
2022/09/18 04:35:04;;;;;;;3.87;2.00;;;11.10;99.90;;;;;;5059978;28;20446;-89
2022/09/18 04:37:49;;;;;;;4.57;1.90;;;11.10;99.90;;;;;;5050564;28;20436;-89
2022/09/18 04:40:35;;;;;;;2.90;1.83;;;11.20;99.90;;;;;;5057873;28;20448;-87
2022/09/18 04:43:20;;;;;;;7.13;1.93;;;11.20;99.90;;;;;;5036510;28;20498;-88
2022/09/18 04:46:08;;;;;;;5.90;2.30;;;11.20;99.90;;;;;;5049424;28;20446;-89
2022/09/18 04:48:53;;;;;;;6.37;2.00;;;11.10;99.90;;;;;;5052096;28;20446;-89
2022/09/18 04:51:40;;;;;;;5.73;2.20;;;11.10;99.90;;;;;;5043202;28;20844;-88
2022/09/18 04:54:26;;;;;;;3.57;1.83;;;11.10;99.90;;;;;;5042178;28;20422;-89
2022/09/18 04:57:12;;;;;;;3.57;2.10;;;11.20;99.90;;;;;;5051211;28;20836;-88
2022/09/18 04:59:57;;;;;;;3.40;2.20;;;11.30;99.90;;;;;;5050685;28;20465;-88
2022/09/18 05:02:43;;;;;;;7.83;2.10;;;11.20;99.90;;;;;;5040665;28;20752;-88
2022/09/18 05:05:28;;;;;;;7.90;2.20;;;11.30;99.90;;;;;;5044691;28;20478;-89
2022/09/18 05:08:15;;;;;;;4.97;2.60;;;11.30;99.90;;;;;;5048062;28;20458;-89
2022/09/18 05:11:03;;;;;;;4.00;2.20;;;11.20;99.90;;;;;;5050290;28;20439;-88
2022/09/18 05:13:51;;;;;;;5.73;2.50;;;11.20;99.90;;;;;;5045789;28;20518;-88
2022/09/18 05:16:36;;;;;;;8.03;2.63;;;11.10;99.90;;;;;;5050627;28;20443;-89
2022/09/18 05:19:22;;;;;;;4.80;2.10;;;11.10;99.90;;;;;;5058066;28;20545;-88
2022/09/18 05:22:08;;;;;;;3.10;2.30;;;11.00;99.90;;;;;;5050745;28;20448;-89
2022/09/18 05:24:58;;;;;;;7.10;2.20;;;11.00;99.90;;;;;;5051110;28;20522;-89
2022/09/18 05:27:44;;;;;;;8.80;2.80;;;10.90;99.90;;;;;;5050210;28;20443;-88
2022/09/18 05:30:30;;;;;;;5.47;2.20;;;10.90;99.90;;;;;;5050794;28;20470;-89
2022/09/18 05:33:16;;;;;;;4.77;2.43;;;10.90;99.90;;;;;;5045578;28;20447;-88
2022/09/18 05:36:03;;;;;;;8.07;2.90;;;11.00;99.90;;;;;;5050703;28;20530;-88
2022/09/18 05:38:48;;;;;;;7.27;2.97;;;11.00;99.90;;;;;;5054323;28;20439;-89
2022/09/18 05:41:35;;;;;;;14.33;2.27;;;11.00;99.90;;;;;;5044029;28;20426;-88
2022/09/18 05:44:21;;;;;;;7.10;2.40;;;11.00;99.90;;;;;;5048302;28;20451;-89
2022/09/18 05:47:07;;;;;;;8.00;2.60;;;11.00;99.90;;;;;;5063484;22;20494;-74
2022/09/18 05:49:52;;;;;;;4.70;2.33;;;11.00;99.90;;;;;;5023584;28;20500;-74
2022/09/18 05:52:38;;;;;;;6.50;2.60;;;11.10;99.90;;;;;;5005412;28;20420;-74
2022/09/18 05:55:24;;;;;;;2.93;1.90;;;11.20;99.90;;;;;;5013070;28;20458;-74
2022/09/18 05:58:13;;;;;;;5.87;2.30;;;11.30;99.90;;;;;;5025589;28;20923;-74
2022/09/18 06:01:01;;;;;;;8.63;1.93;;;11.30;99.90;;;;;;5046324;22;20837;-77
2022/09/18 06:03:49;;;;;;;3.03;2.00;;;11.20;99.90;;;;;;5072901;28;20483;-77
2022/09/18 06:06:35;;;;;;;5.00;2.10;;;11.30;99.90;;;;;;5079491;28;20425;-78
2022/09/18 06:09:21;;;;;;;5.23;2.10;;;11.30;99.90;;;;;;5070589;28;20519;-79
2022/09/18 06:12:07;;;;;;;2.93;1.70;;;11.40;99.90;;;;;;5038365;28;20468;-77
2022/09/18 06:14:54;;;;;;;3.33;2.30;;;11.50;99.90;;;;;;5059098;28;20983;-78
2022/09/18 06:17:40;;;;;;;3.33;2.13;;;11.60;99.90;;;;;;5062068;28;20413;-77
2022/09/18 06:20:26;;;;;;;5.40;2.10;;;11.50;99.90;;;;;;5046489;28;20402;-79
2022/09/18 06:23:11;;;;;;;4.00;2.00;;;11.50;99.90;;;;;;5038842;28;20421;-78
2022/09/18 06:25:58;;;;;;;4.20;2.10;;;11.50;99.90;;;;;;5045893;28;20439;-79
2022/09/18 06:28:44;;;;;;;4.40;2.03;;;11.50;99.90;;;;;;5052926;28;20613;-78
2022/09/18 06:31:31;;;;;;;4.60;2.10;;;11.50;99.90;;;;;;5048577;28;20542;-77
2022/09/18 06:34:16;;;;;;;8.43;2.43;;;11.60;99.90;;;;;;5051995;28;20717;-78
2022/09/18 06:37:02;;;;;;;5.63;2.37;;;11.60;99.90;;;;;;5062600;28;20410;-79
2022/09/18 06:39:48;;;;;;;4.27;2.10;;;11.70;99.90;;;;;;5051639;28;20522;-77
2022/09/18 06:42:33;;;;;;;7.37;2.13;;;11.60;99.90;;;;;;5046389;28;20477;-78
2022/09/18 06:45:19;;;;;;;3.43;2.00;;;11.50;99.90;;;;;;5049060;28;20471;-78
2022/09/18 06:48:06;;;;;;;3.90;1.80;;;11.50;99.90;;;;;;5066385;28;20422;-78
2022/09/18 06:50:53;;;;;;;3.10;2.00;;;11.50;99.90;;;;;;5046042;28;20446;-77
2022/09/18 06:53:38;;;;;;;8.57;2.80;;;11.60;99.90;;;;;;5046472;28;20435;-76
2022/09/18 06:56:24;;;;;;;4.40;2.20;;;11.50;99.90;;;;;;5047353;28;20622;-78
2022/09/18 06:59:10;;;;;;;6.27;2.50;;;11.50;99.90;;;;;;5057697;28;20406;-78
2022/09/18 07:01:56;;;;;;;3.63;1.93;;;11.60;99.90;;;;;;5050950;28;20852;-77
2022/09/18 07:04:43;;;;;;;9.97;2.80;;;11.60;99.90;;;;;;5054771;28;20769;-78
2022/09/18 07:07:29;;;;;;;3.20;1.87;;;11.70;99.90;;;;;;5067277;28;20553;-77
2022/09/18 07:10:15;;;;;;;4.87;2.13;;;11.70;99.90;;;;;;5054721;28;21112;-78
2022/09/18 07:13:01;;;;;;;5.43;2.43;;;11.70;99.90;;;;;;5060977;28;20402;-78
2022/09/18 07:15:47;;;;;;;8.00;2.83;;;11.80;99.90;;;;;;5056067;28;21017;-79
2022/09/18 07:18:33;;;;;;;9.90;2.70;;;11.80;99.90;;;;;;5061571;28;20934;-77
2022/09/18 07:21:20;;;;;;;7.53;2.40;;;11.90;99.90;;;;;;5050350;28;20448;-77
2022/09/18 07:24:06;;;;;;;3.90;1.87;;;11.90;99.90;;;;;;5062652;28;20413;-77
2022/09/18 07:26:51;;;;;;;3.90;2.43;;;11.90;99.90;;;;;;5053344;28;20891;-77
2022/09/18 07:29:38;;;;;;;4.00;1.80;;;11.80;99.90;;;;;;5050984;28;20487;-77
2022/09/18 07:32:24;;;;;;;4.93;1.83;;;11.80;99.90;;;;;;5055366;28;20977;-77
2022/09/18 07:35:10;;;;;;;4.30;1.80;;;11.90;99.90;;;;;;5048823;28;20448;-75
2022/09/18 07:37:59;;;;;;;6.20;2.10;;;11.90;99.90;;;;;;5049168;28;20406;-75
2022/09/18 07:40:44;;;;;;;3.70;2.33;;;12.00;99.90;;;;;;5042601;28;20588;-76
2022/09/18 07:43:31;;;;;;;5.67;2.27;;;12.00;99.90;;;;;;5053748;28;22103;-75
2022/09/18 07:46:17;;;;;;;4.97;2.03;;;12.10;99.90;;;;;;5052645;28;20494;-76
2022/09/18 07:49:02;;;;;;;4.97;1.80;;;12.10;99.90;;;;;;5048462;28;21069;-76
2022/09/18 07:51:48;;;;;;;6.73;2.90;;;12.20;99.90;;;;;;5048641;28;20945;-76
2022/09/18 07:54:35;;;;;;;4.80;2.33;;;12.10;99.90;;;;;;5051553;28;20485;-76
2022/09/18 07:57:21;;;;;;;4.30;2.27;;;12.10;99.90;;;;;;5042380;28;20450;-76
2022/09/18 08:00:08;;;;;;;9.33;2.60;;;12.10;99.90;;;;;;5043668;28;20430;-76
2022/09/18 08:03:02;;;;;;;4.10;2.23;;;12.10;99.90;;;;;;5045506;28;20491;-76
2022/09/18 08:05:48;;;;;;;4.60;2.60;;;12.10;99.90;;;;;;5048956;28;20451;-76
2022/09/18 08:08:34;;;;;;;9.23;2.43;;;12.20;99.90;;;;;;5044405;28;20446;-76
2022/09/18 08:11:22;;;;;;;3.37;2.20;;;12.30;99.90;;;;;;5045351;28;20866;-76
2022/09/18 08:14:09;;;;;;;5.90;2.10;;;12.30;99.90;;;;;;5060795;28;20450;-76
2022/09/18 08:16:54;;;;;;;3.20;1.80;;;12.40;99.90;;;;;;5054536;28;20514;-76
2022/09/18 08:19:40;;;;;;;5.67;1.93;;;12.50;99.90;;;;;;5051789;28;21046;-76
2022/09/18 08:22:26;;;;;;;12.67;3.30;;;12.50;99.90;;;;;;5056188;28;20429;-76
2022/09/18 08:25:11;;;;;;;5.57;2.20;;;12.50;99.90;;;;;;5048179;28;21114;-76
2022/09/18 08:28:00;;;;;;;3.00;1.57;;;12.50;99.90;;;;;;5052600;28;20402;-76
2022/09/18 08:30:46;;;;;;;4.23;1.67;;;12.50;99.90;;;;;;5038628;28;20479;-77
2022/09/18 08:33:32;;;;;;;5.10;1.83;;;12.40;99.90;;;;;;5043536;28;20875;-77
2022/09/18 08:36:17;;;;;;;5.57;1.90;;;12.50;99.90;;;;;;5054224;28;20414;-77
2022/09/18 08:39:03;;;;;;;5.20;1.93;;;12.60;99.90;;;;;;5040806;28;20910;-77
2022/09/18 08:42:02;;;;;;;2.50;1.40;;;12.50;99.90;;;;;;5050653;28;20871;-76
2022/09/18 08:44:52;;;;;;;3.53;2.07;;;12.50;99.90;;;;;;5047451;28;20440;-76
2022/09/18 08:47:41;;;;;;;6.57;1.57;;;12.50;99.90;;;;;;5060752;28;20438;-76
2022/09/18 08:50:30;;;;;;;6.87;1.90;;;12.60;99.90;;;;;;5044867;28;20487;-77
2022/09/18 08:53:20;;;;;;;2.80;1.37;;;12.60;99.90;;;;;;5054994;28;22241;-76
2022/09/18 08:56:12;;;;;;;4.83;1.30;;;12.70;99.90;;;;;;5046337;28;20976;-78
2022/09/18 08:59:01;;;;;;;4.97;1.57;;;12.80;99.90;;;;;;5042154;28;20494;-78
2022/09/18 09:01:55;;;;;;;4.47;1.40;;;12.90;99.90;;;;;;5053473;28;20438;-78
2022/09/18 09:04:41;;;;;;;5.20;1.57;;;12.90;99.90;;;;;;5052680;28;20447;-78
2022/09/18 09:07:41;;;;;;;5.57;1.80;;;12.90;99.90;;;;;;5045152;28;20771;-78
2022/09/18 09:10:41;;;;;;;7.03;1.20;;;12.80;99.90;;;;;;5042899;28;20491;-79
2022/09/18 09:13:53;;;;;;;4.30;1.50;;;12.80;99.90;;;;;;5054423;28;20845;-79
2022/09/18 09:16:42;;;;;;;3.97;1.70;;;12.80;99.90;;;;;;5055874;28;20446;-78
2022/09/18 09:19:35;;;;;;;5.23;1.70;;;12.70;99.90;;;;;;5043168;28;20511;-79
2022/09/18 09:22:29;;;;;;;4.33;1.90;;;12.80;99.90;;;;;;5048885;28;20475;-79
2022/09/18 09:25:21;;;;;;;3.60;1.50;;;12.90;99.90;;;;;;5047403;28;20446;-79
2022/09/18 09:28:15;;;;;;;4.70;1.90;;;13.00;99.90;;;;;;5053257;28;20995;-79
2022/09/18 09:31:05;;;;;;;3.80;1.80;;;13.10;99.90;;;;;;5056181;28;20450;-79
2022/09/18 09:33:56;;;;;;;10.30;1.90;;;13.20;99.90;;;;;;5054345;28;20443;-80
2022/09/18 09:36:46;;;;;;;4.00;1.80;;;13.20;99.90;;;;;;5062112;28;20414;-80
2022/09/18 09:39:38;;;;;;;12.20;2.33;;;13.30;99.90;;;;;;5051494;28;20457;-80
2022/09/18 09:42:28;;;;;;;3.97;2.13;;;13.30;99.90;;;;;;5042547;28;20494;-78
2022/09/18 09:45:17;;;;;;;5.77;2.07;;;13.30;99.90;;;;;;5047287;28;20449;-79
2022/09/18 09:48:10;;;;;;;4.00;1.60;;;13.30;99.90;;;;;;5048427;28;20637;-78
2022/09/18 09:51:02;;;;;;;2.70;1.50;;;13.10;99.90;;;;;;5042395;28;21074;-78
2022/09/18 09:53:52;;;;;;;3.77;1.50;;;13.10;99.90;;;;;;5044563;28;20499;-78
2022/09/18 09:56:42;;;;;;;6.77;1.50;;;13.00;99.90;;;;;;5049279;28;20502;-78
2022/09/18 09:59:35;;;;;;;8.60;1.47;;;13.00;99.90;;;;;;5047016;28;20619;-79
2022/09/18 10:02:52;;;;;;;6.13;1.57;;;12.90;99.90;;;;;;5047087;28;20887;-79
2022/09/18 10:05:44;;;;;;;5.83;2.50;;;13.00;99.90;;;;;;5041204;28;20422;-79
2022/09/18 10:08:38;;;;;;;7.80;1.73;;;13.10;99.90;;;;;;5041781;28;20478;-79
2022/09/18 10:11:25;;;;;;;4.87;1.70;;;13.10;99.90;;;;;;5057327;28;20457;-79
2022/09/18 10:14:19;;;;;;;2.63;1.50;;;13.20;99.90;;;;;;5048394;28;20419;-79
2022/09/18 10:17:11;;;;;;;7.97;3.23;;;13.20;99.90;;;;;;5050383;28;20418;-79
2022/09/18 10:19:57;;;;;;;6.70;1.67;;;13.40;99.90;;;;;;5051007;28;20477;-78
2022/09/18 10:22:43;;;;;;;4.80;1.50;;;13.40;99.90;;;;;;5050947;28;21859;-79
2022/09/18 10:25:39;;;;;;;8.63;1.57;;;13.60;99.90;;;;;;5045900;28;20780;-79
2022/09/18 10:28:28;;;;;;;5.37;1.53;;;13.70;99.90;;;;;;5040574;28;20542;-79
2022/09/18 10:31:15;;;;;;;11.00;1.70;;;13.70;99.90;;;;;;5053169;28;20571;-78
2022/09/18 10:34:01;;;;;;;5.27;1.67;;;13.80;99.90;;;;;;5052197;28;20956;-77
2022/09/18 10:36:47;;;;;;;3.43;1.20;;;13.80;99.90;;;;;;5045675;28;20461;-77
2022/09/18 10:39:35;;;;;;;3.73;1.43;;;13.70;99.90;;;;;;5039503;28;20974;-77
2022/09/18 10:42:23;;;;;;;4.73;1.30;;;13.70;99.90;;;;;;5048376;28;20448;-78
2022/09/18 10:45:23;;;;;;;7.93;1.40;;;13.80;99.90;;;;;;5050173;28;20501;-77
2022/09/18 10:48:14;;;;;;;3.83;1.23;;;13.80;99.90;;;;;;5049705;28;20685;-77
2022/09/18 10:51:03;;;;;;;5.13;1.70;;;13.80;99.90;;;;;;5044493;28;20811;-76
2022/09/18 10:54:05;;;;;;;4.40;1.30;;;13.80;99.90;;;;;;5053682;28;20510;-77
2022/09/18 10:56:52;;;;;;;8.73;1.90;;;13.90;99.90;;;;;;5054271;28;20434;-77
2022/09/18 10:59:37;;;;;;;4.73;1.20;;;14.00;99.90;;;;;;5052078;28;20488;-76
2022/09/18 11:02:28;;;;;;;3.37;1.40;;;14.00;99.90;;;;;;5045348;28;20452;-76
2022/09/18 11:05:17;;;;;;;3.03;1.23;;;14.10;99.90;;;;;;5052679;28;20536;-75
2022/09/18 11:08:07;;;;;;;3.40;1.40;;;14.10;99.90;;;;;;5043925;28;20497;-76
2022/09/18 11:11:01;;;;;;;5.70;1.10;;;14.10;99.90;;;;;;5048136;28;20446;-74
2022/09/18 11:13:51;;;;;;;5.07;1.50;;;14.20;99.90;;;;;;5047362;28;20964;-72
2022/09/18 11:16:42;;;;;;;6.97;1.43;;;14.20;99.90;;;;;;5047144;28;20833;-72
2022/09/18 11:19:32;;;;;;;6.50;1.80;;;14.20;99.90;;;;;;5049331;28;20426;-72
2022/09/18 11:22:38;;;;;;;14.43;1.67;;;14.10;99.90;;;;;;5049669;28;20992;-75
2022/09/18 11:25:26;;;;;;;2.47;1.27;;;14.10;99.90;;;;;;5042190;28;20418;-76
2022/09/18 11:28:22;;;;;;;5.97;1.67;;;14.00;99.90;;;;;;5051800;28;20504;-80
2022/09/18 11:31:14;;;;;;;2.30;1.10;;;13.90;99.90;;;;;;5053799;28;20461;-80
2022/09/18 11:34:00;;;;;;;4.27;1.53;;;14.00;99.90;;;;;;5053494;28;20443;-78
2022/09/18 11:36:51;;;;;;;5.40;1.57;;;14.00;99.90;;;;;;5048263;28;20451;-77
2022/09/18 11:39:41;;;;;;;3.63;1.47;;;13.90;99.90;;;;;;5046666;28;20427;-76
2022/09/18 11:42:28;;;;;;;5.60;1.70;;;13.90;99.90;;;;;;5049858;28;20533;-78
2022/09/18 11:45:36;;;;;;;4.20;1.30;;;13.90;99.90;;;;;;5053942;28;20508;-77
2022/09/18 11:48:29;;;;;;;2.80;1.37;;;13.80;99.90;;;;;;5035815;28;20478;-78
2022/09/18 11:51:19;;;;;;;3.97;1.77;;;13.90;99.90;;;;;;5049258;28;21025;-76
2022/09/18 11:54:11;;;;;;;3.90;1.90;;;13.90;99.90;;;;;;5055014;28;20480;-76
2022/09/18 11:57:01;;;;;;;3.30;1.27;;;13.90;99.90;;;;;;5043501;28;20825;-76
2022/09/18 11:59:54;;;;;;;4.67;1.53;;;14.00;99.90;;;;;;5045099;28;20849;-76
2022/09/18 12:02:44;;;;;;;4.30;1.50;;;14.00;99.90;;;;;;5079017;22;20570;-75
2022/09/18 12:05:39;;;;;;;3.87;1.90;;;14.10;99.90;;;;;;5069288;28;20485;-77
2022/09/18 12:08:38;;;;;;;3.63;1.90;;;14.00;99.90;;;;;;5051696;28;20558;-78
2022/09/18 12:11:35;;;;;;;3.80;1.97;;;14.00;99.90;;;;;;5069423;28;20525;-78
2022/09/18 12:14:25;;;;;;;2.80;1.30;;;14.10;99.90;;;;;;5071838;28;20974;-78
2022/09/18 12:17:19;;;;;;;3.23;1.23;;;14.10;99.90;;;;;;5073543;28;20484;-77
2022/09/18 12:20:10;;;;;;;6.40;1.67;;;14.00;99.90;;;;;;5069451;28;20794;-78
2022/09/18 12:22:57;;;;;;;4.87;1.73;;;14.00;99.90;;;;;;5074071;28;20513;-78
2022/09/18 12:25:49;;;;;;;12.93;4.07;;;14.00;99.90;;;;;;5069826;28;20413;-76
2022/09/18 12:28:44;;;;;;;9.33;2.17;;;14.00;99.90;;;;;;5062435;28;20442;-77
2022/09/18 12:31:39;;;;;;;3.50;1.57;;;14.10;99.90;;;;;;5067407;28;20474;-78
2022/09/18 12:34:32;;;;;;;4.50;1.40;;;14.10;99.90;;;;;;5058780;28;20455;-76
2022/09/18 12:37:35;;;;;;;7.90;1.83;;;14.10;99.90;;;;;;5065793;28;20823;-76
2022/09/18 12:40:37;;;;;;;2.70;1.30;;;14.00;99.90;;;;;;5074782;28;20417;-77
2022/09/18 12:43:59;;;;;;;3.60;1.60;;;14.00;99.90;;;;;;5063453;28;20650;-77
2022/09/18 12:46:58;;;;;;;6.27;2.57;;;14.00;99.90;;;;;;5071067;28;20497;-77
2022/09/18 12:50:02;;;;;;;5.53;1.47;;;14.00;99.90;;;;;;5072365;28;20461;-78
2022/09/18 12:52:56;;;;;;;5.50;1.83;;;14.00;99.90;;;;;;5060342;28;20442;-76
2022/09/18 12:56:03;;;;;;;2.33;1.20;;;13.90;99.90;;;;;;5063143;28;20579;-76
2022/09/18 12:59:08;;;;;;;5.77;1.63;;;13.80;99.90;;;;;;5069379;28;20454;-76
2022/09/18 13:01:58;;;;;;;3.50;1.40;;;13.80;99.90;;;;;;5063003;28;20454;-77
2022/09/18 13:04:50;;;;;;;8.43;2.00;;;13.70;99.90;;;;;;5077155;28;20443;-77
2022/09/18 13:07:40;;;;;;;6.07;1.63;;;13.70;99.90;;;;;;5073991;28;20420;-77
2022/09/18 13:10:30;;;;;;;3.90;2.10;;;13.70;99.90;;;;;;5076589;28;20443;-77
2022/09/18 13:13:22;;;;;;;5.43;1.40;;;13.60;99.90;;;;;;5073047;28;20425;-77
2022/09/18 13:16:15;;;;;;;6.93;2.40;;;13.60;99.90;;;;;;5071793;28;20458;-77
2022/09/18 13:19:07;;;;;;;3.93;1.50;;;13.60;99.90;;;;;;5087303;28;20392;-77
2022/09/18 13:21:55;;;;;;;4.90;1.80;;;13.70;99.90;;;;;;5063452;28;20549;-77
2022/09/18 13:24:42;;;;;;;9.00;2.27;;;13.70;99.90;;;;;;5061326;28;20450;-77
2022/09/18 13:27:28;;;;;;;6.90;1.90;;;13.80;99.90;;;;;;5074163;28;20442;-76
2022/09/18 13:30:16;;;;;;;2.30;1.43;;;13.70;99.90;;;;;;5064491;28;20538;-77
2022/09/18 13:33:03;;;;;;;2.97;1.60;;;13.70;99.90;;;;;;5062010;28;20477;-77
2022/09/18 13:35:54;;;;;;;3.03;1.70;;;13.70;99.90;;;;;;5069853;28;20433;-78
2022/09/18 13:38:50;;;;;;;2.60;1.63;;;13.70;99.90;;;;;;5066467;28;20550;-78
2022/09/18 13:41:45;;;;;;;3.30;1.80;;;13.70;99.90;;;;;;5060728;28;20815;-77
2022/09/18 13:44:34;;;;;;;3.70;1.60;;;13.80;99.90;;;;;;5067958;28;20441;-77
2022/09/18 13:47:20;;;;;;;5.50;2.83;;;13.80;99.90;;;;;;5065203;28;20429;-77
2022/09/18 13:50:17;;;;;;;6.07;1.67;;;13.80;99.90;;;;;;5076525;28;20421;-78
2022/09/18 13:53:04;;;;;;;3.87;1.70;;;13.80;99.90;;;;;;5067233;28;20470;-79
2022/09/18 13:55:50;;;;;;;4.23;1.30;;;13.80;99.90;;;;;;5053635;28;20454;-78
2022/09/18 13:58:47;;;;;;;2.70;1.37;;;13.90;99.90;;;;;;5063653;28;20446;-78
2022/09/18 14:01:58;;;;;;;5.90;1.70;;;13.90;99.90;;;;;;5065198;28;20494;-78
2022/09/18 14:05:27;;;;;;;9.17;1.60;;;13.90;99.90;;;;;;5062403;28;20449;-78
2022/09/18 14:08:36;;;;;;;4.90;1.70;;;13.80;99.90;;;;;;5078386;28;20478;-78
2022/09/18 14:11:24;;;;;;;3.67;1.33;;;13.90;99.90;;;;;;5068436;28;21194;-79
2022/09/18 14:14:13;;;;;;;3.57;1.57;;;13.80;99.90;;;;;;5062676;28;20949;-78
2022/09/18 14:17:12;;;;;;;6.20;1.77;;;13.80;99.90;;;;;;5066630;28;21081;-79
2022/09/18 14:20:06;;;;;;;4.80;1.63;;;13.90;99.90;;;;;;5066066;28;20676;-78
2022/09/18 14:22:52;;;;;;;5.43;1.80;;;13.80;99.90;;;;;;5061193;28;20520;-78
2022/09/18 14:25:48;;;;;;;5.30;1.77;;;13.80;99.90;;;;;;5071770;28;20452;-77
2022/09/18 14:28:36;;;;;;;12.33;2.10;;;13.80;99.90;;;;;;5064510;28;20409;-79
2022/09/18 14:31:27;;;;;;;2.77;1.53;;;13.80;99.90;;;;;;5064058;28;20453;-77
2022/09/18 14:34:17;;;;;;;4.83;1.60;;;13.90;99.90;;;;;;5064635;28;20940;-78
2022/09/18 14:37:22;;;;;;;4.57;1.60;;;13.90;99.90;;;;;;5056102;28;20566;-77
2022/09/18 14:40:18;;;;;;;3.50;1.60;;;13.80;99.90;;;;;;5065324;28;20421;-78
2022/09/18 14:43:15;;;;;;;2.97;1.40;;;13.90;99.90;;;;;;5060522;28;20462;-78